sensor_id;sensor_type;location;lat;lon;timestamp;temperature;humidity
10070;DHT22;5074;53.720;10.014;2022-09-20T00:01:13;8.50;99.90
10070;DHT22;5074;53.720;10.014;2022-09-20T00:03:43;8.50;99.90
10070;DHT22;5074;53.720;10.014;2022-09-20T00:06:12;8.50;99.90
10070;DHT22;5074;53.720;10.014;2022-09-20T00:08:42;8.50;99.90
10070;DHT22;5074;53.720;10.014;2022-09-20T00:11:12;8.50;99.90
10070;DHT22;5074;53.720;10.014;2022-09-20T00:13:43;8.50;99.90
10070;DHT22;5074;53.720;10.014;2022-09-20T00:16:13;8.50;99.90
10070;DHT22;5074;53.720;10.014;2022-09-20T00:18:42;8.50;99.90
10070;DHT22;5074;53.720;10.014;2022-09-20T00:21:14;8.50;99.90
10070;DHT22;5074;53.720;10.014;2022-09-20T00:23:43;8.50;99.90
10070;DHT22;5074;53.720;10.014;2022-09-20T00:26:13;8.50;99.90
10070;DHT22;5074;53.720;10.014;2022-09-20T00:28:41;8.50;99.90
10070;DHT22;5074;53.720;10.014;2022-09-20T00:31:10;8.50;99.90
10070;DHT22;5074;53.720;10.014;2022-09-20T00:33:38;8.50;99.90
10070;DHT22;5074;53.720;10.014;2022-09-20T00:36:38;8.40;99.90
10070;DHT22;5074;53.720;10.014;2022-09-20T00:39:06;8.40;99.90
10070;DHT22;5074;53.720;10.014;2022-09-20T00:41:38;8.40;99.90
10070;DHT22;5074;53.720;10.014;2022-09-20T00:47:09;8.40;99.90
10070;DHT22;5074;53.720;10.014;2022-09-20T00:49:43;8.40;99.90
10070;DHT22;5074;53.720;10.014;2022-09-20T00:52:11;8.40;99.90
10070;DHT22;5074;53.720;10.014;2022-09-20T00:54:39;8.40;99.90
10070;DHT22;5074;53.720;10.014;2022-09-20T00:57:09;8.40;99.90
10070;DHT22;5074;53.720;10.014;2022-09-20T00:59:38;8.30;99.90
10070;DHT22;5074;53.720;10.014;2022-09-20T01:02:11;8.30;99.90
10070;DHT22;5074;53.720;10.014;2022-09-20T01:04:43;8.30;99.90
10070;DHT22;5074;53.720;10.014;2022-09-20T01:07:15;8.30;99.90
10070;DHT22;5074;53.720;10.014;2022-09-20T01:09:48;8.30;99.90
10070;DHT22;5074;53.720;10.014;2022-09-20T01:12:19;8.30;99.90
10070;DHT22;5074;53.720;10.014;2022-09-20T01:14:50;8.30;99.90
10070;DHT22;5074;53.720;10.014;2022-09-20T01:17:19;8.30;99.90
10070;DHT22;5074;53.720;10.014;2022-09-20T01:19:55;8.30;99.90
10070;DHT22;5074;53.720;10.014;2022-09-20T01:22:35;8.30;99.90
10070;DHT22;5074;53.720;10.014;2022-09-20T01:25:15;8.30;99.90
10070;DHT22;5074;53.720;10.014;2022-09-20T01:27:49;8.30;99.90
10070;DHT22;5074;53.720;10.014;2022-09-20T01:30:19;8.30;99.90
10070;DHT22;5074;53.720;10.014;2022-09-20T01:32:58;8.20;99.90
10070;DHT22;5074;53.720;10.014;2022-09-20T01:35:40;8.20;99.90
10070;DHT22;5074;53.720;10.014;2022-09-20T01:38:15;8.20;99.90
10070;DHT22;5074;53.720;10.014;2022-09-20T01:40:54;8.20;99.90
10070;DHT22;5074;53.720;10.014;2022-09-20T01:43:33;8.10;99.90
10070;DHT22;5074;53.720;10.014;2022-09-20T01:46:06;8.10;99.90
10070;DHT22;5074;53.720;10.014;2022-09-20T01:48:45;8.10;99.90
10070;DHT22;5074;53.720;10.014;2022-09-20T01:54:31;8.10;99.90
10070;DHT22;5074;53.720;10.014;2022-09-20T01:57:35;8.00;99.90
10070;DHT22;5074;53.720;10.014;2022-09-20T02:00:19;8.00;99.90
10070;DHT22;5074;53.720;10.014;2022-09-20T02:06:07;8.00;99.90
10070;DHT22;5074;53.720;10.014;2022-09-20T02:11:58;7.90;99.90
10070;DHT22;5074;53.720;10.014;2022-09-20T02:14:44;8.00;99.90
10070;DHT22;5074;53.720;10.014;2022-09-20T02:17:24;8.00;99.90
10070;DHT22;5074;53.720;10.014;2022-09-20T02:20:05;7.90;99.90
10070;DHT22;5074;53.720;10.014;2022-09-20T02:22:52;7.80;99.90
10070;DHT22;5074;53.720;10.014;2022-09-20T02:25:42;7.80;99.90
10070;DHT22;5074;53.720;10.014;2022-09-20T02:28:22;7.80;99.90
10070;DHT22;5074;53.720;10.014;2022-09-20T02:31:01;7.80;99.90
10070;DHT22;5074;53.720;10.014;2022-09-20T02:33:50;7.70;99.90
10070;DHT22;5074;53.720;10.014;2022-09-20T02:36:30;7.70;99.90
10070;DHT22;5074;53.720;10.014;2022-09-20T02:39:10;7.60;99.90
10070;DHT22;5074;53.720;10.014;2022-09-20T02:41:51;7.60;99.90
10070;DHT22;5074;53.720;10.014;2022-09-20T02:44:35;7.60;99.90
10070;DHT22;5074;53.720;10.014;2022-09-20T02:47:16;7.60;99.90
10070;DHT22;5074;53.720;10.014;2022-09-20T02:49:55;7.50;99.90
10070;DHT22;5074;53.720;10.014;2022-09-20T02:52:34;7.60;99.90
10070;DHT22;5074;53.720;10.014;2022-09-20T02:55:12;7.50;99.90
10070;DHT22;5074;53.720;10.014;2022-09-20T02:57:47;7.40;99.90
10070;DHT22;5074;53.720;10.014;2022-09-20T03:00:22;7.50;99.90
10070;DHT22;5074;53.720;10.014;2022-09-20T03:02:59;7.40;99.90
10070;DHT22;5074;53.720;10.014;2022-09-20T03:05:40;7.40;99.90
10070;DHT22;5074;53.720;10.014;2022-09-20T03:08:26;7.40;99.90
10070;DHT22;5074;53.720;10.014;2022-09-20T03:11:02;7.40;99.90
10070;DHT22;5074;53.720;10.014;2022-09-20T03:13:43;7.40;99.90
10070;DHT22;5074;53.720;10.014;2022-09-20T03:16:23;7.40;99.90
10070;DHT22;5074;53.720;10.014;2022-09-20T03:19:03;7.30;99.90
10070;DHT22;5074;53.720;10.014;2022-09-20T03:21:46;7.30;99.90
10070;DHT22;5074;53.720;10.014;2022-09-20T03:24:28;7.30;99.90
10070;DHT22;5074;53.720;10.014;2022-09-20T03:27:07;7.30;99.90
10070;DHT22;5074;53.720;10.014;2022-09-20T03:29:46;7.20;99.90
10070;DHT22;5074;53.720;10.014;2022-09-20T03:32:29;7.30;99.90
10070;DHT22;5074;53.720;10.014;2022-09-20T03:35:15;7.30;99.90
10070;DHT22;5074;53.720;10.014;2022-09-20T03:37:55;7.20;99.90
10070;DHT22;5074;53.720;10.014;2022-09-20T03:44:09;7.20;99.90
10070;DHT22;5074;53.720;10.014;2022-09-20T03:46:50;7.10;99.90
10070;DHT22;5074;53.720;10.014;2022-09-20T03:49:46;7.20;99.90
10070;DHT22;5074;53.720;10.014;2022-09-20T03:52:36;7.20;99.90
10070;DHT22;5074;53.720;10.014;2022-09-20T03:55:34;7.10;99.90
10070;DHT22;5074;53.720;10.014;2022-09-20T03:58:23;7.10;99.90
10070;DHT22;5074;53.720;10.014;2022-09-20T04:01:08;7.00;99.90
10070;DHT22;5074;53.720;10.014;2022-09-20T04:03:52;7.10;99.90
10070;DHT22;5074;53.720;10.014;2022-09-20T04:06:32;7.10;99.90
10070;DHT22;5074;53.720;10.014;2022-09-20T04:09:28;7.10;99.90
10070;DHT22;5074;53.720;10.014;2022-09-20T04:12:13;7.00;99.90
10070;DHT22;5074;53.720;10.014;2022-09-20T04:14:52;7.00;99.90
10070;DHT22;5074;53.720;10.014;2022-09-20T04:17:34;7.00;99.90
10070;DHT22;5074;53.720;10.014;2022-09-20T04:20:12;7.00;99.90
10070;DHT22;5074;53.720;10.014;2022-09-20T04:22:46;7.00;99.90
10070;DHT22;5074;53.720;10.014;2022-09-20T04:25:18;7.00;99.90
10070;DHT22;5074;53.720;10.014;2022-09-20T04:27:52;6.90;99.90
10070;DHT22;5074;53.720;10.014;2022-09-20T04:30:25;6.90;99.90
10070;DHT22;5074;53.720;10.014;2022-09-20T04:32:57;6.90;99.90
10070;DHT22;5074;53.720;10.014;2022-09-20T04:35:32;6.80;99.90
10070;DHT22;5074;53.720;10.014;2022-09-20T04:38:25;6.80;99.90
10070;DHT22;5074;53.720;10.014;2022-09-20T04:44:13;6.80;99.90
10070;DHT22;5074;53.720;10.014;2022-09-20T04:56:14;6.80;99.90
10070;DHT22;5074;53.720;10.014;2022-09-20T04:58:47;6.90;99.90
10070;DHT22;5074;53.720;10.014;2022-09-20T05:01:43;6.80;99.90
10070;DHT22;5074;53.720;10.014;2022-09-20T05:07:47;6.90;99.90
10070;DHT22;5074;53.720;10.014;2022-09-20T05:10:55;6.90;99.90
10070;DHT22;5074;53.720;10.014;2022-09-20T05:13:38;6.80;99.90
10070;DHT22;5074;53.720;10.014;2022-09-20T05:16:23;6.70;99.90
10070;DHT22;5074;53.720;10.014;2022-09-20T05:19:21;6.40;99.90
10070;DHT22;5074;53.720;10.014;2022-09-20T05:22:05;6.20;99.90
10070;DHT22;5074;53.720;10.014;2022-09-20T05:25:03;6.20;99.90
10070;DHT22;5074;53.720;10.014;2022-09-20T05:27:44;6.20;99.90
10070;DHT22;5074;53.720;10.014;2022-09-20T05:30:20;6.30;99.90
10070;DHT22;5074;53.720;10.014;2022-09-20T05:32:55;6.40;99.90
10070;DHT22;5074;53.720;10.014;2022-09-20T05:35:33;6.50;99.90
10070;DHT22;5074;53.720;10.014;2022-09-20T05:38:10;6.60;99.90
10070;DHT22;5074;53.720;10.014;2022-09-20T05:40:49;6.70;99.90
10070;DHT22;5074;53.720;10.014;2022-09-20T05:43:30;6.70;99.90
10070;DHT22;5074;53.720;10.014;2022-09-20T05:46:05;6.70;99.90
10070;DHT22;5074;53.720;10.014;2022-09-20T05:48:47;6.80;99.90
10070;DHT22;5074;53.720;10.014;2022-09-20T05:51:35;6.80;99.90
10070;DHT22;5074;53.720;10.014;2022-09-20T05:54:22;6.90;99.90
10070;DHT22;5074;53.720;10.014;2022-09-20T05:56:57;7.00;99.90
10070;DHT22;5074;53.720;10.014;2022-09-20T05:59:41;7.00;99.90
10070;DHT22;5074;53.720;10.014;2022-09-20T06:02:23;7.10;99.90
10070;DHT22;5074;53.720;10.014;2022-09-20T06:05:00;7.20;99.90
10070;DHT22;5074;53.720;10.014;2022-09-20T06:07:41;7.20;99.90
10070;DHT22;5074;53.720;10.014;2022-09-20T06:10:23;7.30;99.90
10070;DHT22;5074;53.720;10.014;2022-09-20T06:13:10;7.40;99.90
10070;DHT22;5074;53.720;10.014;2022-09-20T06:15:51;7.50;99.90
10070;DHT22;5074;53.720;10.014;2022-09-20T06:18:26;7.50;99.90
10070;DHT22;5074;53.720;10.014;2022-09-20T06:21:02;7.60;99.90
10070;DHT22;5074;53.720;10.014;2022-09-20T06:23:42;7.60;99.90
10070;DHT22;5074;53.720;10.014;2022-09-20T06:26:13;7.60;99.90
10070;DHT22;5074;53.720;10.014;2022-09-20T06:28:44;7.70;99.90
10070;DHT22;5074;53.720;10.014;2022-09-20T06:31:15;7.70;99.90
10070;DHT22;5074;53.720;10.014;2022-09-20T06:33:52;7.70;99.90
10070;DHT22;5074;53.720;10.014;2022-09-20T06:36:24;7.70;99.90
10070;DHT22;5074;53.720;10.014;2022-09-20T06:39:18;7.80;99.90
10070;DHT22;5074;53.720;10.014;2022-09-20T06:42:11;7.80;99.90
10070;DHT22;5074;53.720;10.014;2022-09-20T06:44:39;7.90;99.90
10070;DHT22;5074;53.720;10.014;2022-09-20T06:47:08;7.90;99.90
10070;DHT22;5074;53.720;10.014;2022-09-20T06:49:37;8.10;99.90
10070;DHT22;5074;53.720;10.014;2022-09-20T06:52:09;8.10;99.90
10070;DHT22;5074;53.720;10.014;2022-09-20T06:54:42;8.20;99.90
10070;DHT22;5074;53.720;10.014;2022-09-20T06:57:12;8.20;99.90
10070;DHT22;5074;53.720;10.014;2022-09-20T06:59:42;8.30;99.90
10070;DHT22;5074;53.720;10.014;2022-09-20T07:02:11;8.30;99.90
10070;DHT22;5074;53.720;10.014;2022-09-20T07:04:39;8.40;99.90
10070;DHT22;5074;53.720;10.014;2022-09-20T07:07:11;8.40;99.90
10070;DHT22;5074;53.720;10.014;2022-09-20T07:09:44;8.50;99.90
10070;DHT22;5074;53.720;10.014;2022-09-20T07:12:13;8.50;99.90
10070;DHT22;5074;53.720;10.014;2022-09-20T07:14:40;8.60;99.90
10070;DHT22;5074;53.720;10.014;2022-09-20T07:17:09;8.70;99.90
10070;DHT22;5074;53.720;10.014;2022-09-20T07:19:38;8.70;99.90
10070;DHT22;5074;53.720;10.014;2022-09-20T07:22:06;8.80;99.90
10070;DHT22;5074;53.720;10.014;2022-09-20T07:24:34;8.90;99.90
10070;DHT22;5074;53.720;10.014;2022-09-20T07:27:04;8.90;99.90
10070;DHT22;5074;53.720;10.014;2022-09-20T07:29:32;9.00;99.90
10070;DHT22;5074;53.720;10.014;2022-09-20T07:32:01;9.00;99.90
10070;DHT22;5074;53.720;10.014;2022-09-20T07:34:29;9.00;99.90
10070;DHT22;5074;53.720;10.014;2022-09-20T07:36:58;9.10;99.90
10070;DHT22;5074;53.720;10.014;2022-09-20T07:39:26;9.10;99.90
10070;DHT22;5074;53.720;10.014;2022-09-20T07:41:54;9.20;99.90
10070;DHT22;5074;53.720;10.014;2022-09-20T07:44:23;9.30;99.90
10070;DHT22;5074;53.720;10.014;2022-09-20T07:46:53;9.30;99.90
10070;DHT22;5074;53.720;10.014;2022-09-20T07:49:24;9.40;99.90
10070;DHT22;5074;53.720;10.014;2022-09-20T07:51:53;9.50;99.90
10070;DHT22;5074;53.720;10.014;2022-09-20T07:54:21;9.50;99.90
10070;DHT22;5074;53.720;10.014;2022-09-20T07:56:49;9.50;99.90
10070;DHT22;5074;53.720;10.014;2022-09-20T07:59:17;9.60;99.90
10070;DHT22;5074;53.720;10.014;2022-09-20T08:01:46;9.70;99.90
10070;DHT22;5074;53.720;10.014;2022-09-20T08:04:15;9.80;99.90
10070;DHT22;5074;53.720;10.014;2022-09-20T08:06:43;9.80;99.90
10070;DHT22;5074;53.720;10.014;2022-09-20T08:09:12;9.80;99.90
10070;DHT22;5074;53.720;10.014;2022-09-20T08:11:41;9.80;99.90
10070;DHT22;5074;53.720;10.014;2022-09-20T08:14:11;9.90;99.90
10070;DHT22;5074;53.720;10.014;2022-09-20T08:16:42;10.00;99.90
10070;DHT22;5074;53.720;10.014;2022-09-20T08:19:14;10.00;99.90
10070;DHT22;5074;53.720;10.014;2022-09-20T08:21:43;10.10;99.90
10070;DHT22;5074;53.720;10.014;2022-09-20T08:24:11;10.10;99.90
10070;DHT22;5074;53.720;10.014;2022-09-20T08:26:41;10.20;99.90
10070;DHT22;5074;53.720;10.014;2022-09-20T08:29:10;10.40;99.90
10070;DHT22;5074;53.720;10.014;2022-09-20T08:31:40;10.50;99.90
10070;DHT22;5074;53.720;10.014;2022-09-20T08:34:10;10.50;99.90
10070;DHT22;5074;53.720;10.014;2022-09-20T08:36:42;10.60;99.90
10070;DHT22;5074;53.720;10.014;2022-09-20T08:39:12;10.70;99.90
10070;DHT22;5074;53.720;10.014;2022-09-20T08:42:04;10.70;99.90
10070;DHT22;5074;53.720;10.014;2022-09-20T08:44:42;10.80;99.90
10070;DHT22;5074;53.720;10.014;2022-09-20T08:47:24;10.80;99.90
10070;DHT22;5074;53.720;10.014;2022-09-20T08:49:55;10.80;99.90
10070;DHT22;5074;53.720;10.014;2022-09-20T08:52:28;10.90;99.90
10070;DHT22;5074;53.720;10.014;2022-09-20T08:55:08;11.00;99.90
10070;DHT22;5074;53.720;10.014;2022-09-20T08:57:43;11.10;99.90
10070;DHT22;5074;53.720;10.014;2022-09-20T09:00:17;11.10;99.90
10070;DHT22;5074;53.720;10.014;2022-09-20T09:02:49;11.20;99.90
10070;DHT22;5074;53.720;10.014;2022-09-20T09:05:28;11.20;99.90
10070;DHT22;5074;53.720;10.014;2022-09-20T09:08:00;11.20;99.90
10070;DHT22;5074;53.720;10.014;2022-09-20T09:10:34;11.30;99.90
10070;DHT22;5074;53.720;10.014;2022-09-20T09:13:17;11.30;99.90
10070;DHT22;5074;53.720;10.014;2022-09-20T09:15:54;11.40;99.90
10070;DHT22;5074;53.720;10.014;2022-09-20T09:18:32;11.50;99.90
10070;DHT22;5074;53.720;10.014;2022-09-20T09:21:05;11.60;99.90
10070;DHT22;5074;53.720;10.014;2022-09-20T09:23:39;11.60;99.90
10070;DHT22;5074;53.720;10.014;2022-09-20T09:26:15;11.60;99.90
10070;DHT22;5074;53.720;10.014;2022-09-20T09:28:46;11.70;99.90
10070;DHT22;5074;53.720;10.014;2022-09-20T09:31:20;11.80;99.90
10070;DHT22;5074;53.720;10.014;2022-09-20T09:33:51;11.90;99.90
10070;DHT22;5074;53.720;10.014;2022-09-20T09:36:20;12.00;99.90
10070;DHT22;5074;53.720;10.014;2022-09-20T09:39:12;12.10;99.90
10070;DHT22;5074;53.720;10.014;2022-09-20T09:41:41;12.10;99.90
10070;DHT22;5074;53.720;10.014;2022-09-20T09:44:18;12.20;99.90
10070;DHT22;5074;53.720;10.014;2022-09-20T09:46:48;12.30;99.90
10070;DHT22;5074;53.720;10.014;2022-09-20T09:49:18;12.40;99.90
10070;DHT22;5074;53.720;10.014;2022-09-20T09:52:00;12.50;99.90
10070;DHT22;5074;53.720;10.014;2022-09-20T09:54:32;12.50;99.90
10070;DHT22;5074;53.720;10.014;2022-09-20T09:57:06;12.50;99.90
10070;DHT22;5074;53.720;10.014;2022-09-20T10:00:04;12.60;99.90
10070;DHT22;5074;53.720;10.014;2022-09-20T10:05:56;13.00;99.90
10070;DHT22;5074;53.720;10.014;2022-09-20T10:08:36;13.00;99.90
10070;DHT22;5074;53.720;10.014;2022-09-20T10:11:16;12.90;99.90
10070;DHT22;5074;53.720;10.014;2022-09-20T10:14:00;12.90;99.90
10070;DHT22;5074;53.720;10.014;2022-09-20T10:16:37;12.90;99.90
10070;DHT22;5074;53.720;10.014;2022-09-20T10:19:20;12.90;99.90
10070;DHT22;5074;53.720;10.014;2022-09-20T10:21:59;12.90;99.90
10070;DHT22;5074;53.720;10.014;2022-09-20T10:24:39;12.80;99.90
10070;DHT22;5074;53.720;10.014;2022-09-20T10:27:21;12.70;99.90
10070;DHT22;5074;53.720;10.014;2022-09-20T10:30:01;12.70;99.90
10070;DHT22;5074;53.720;10.014;2022-09-20T10:35:19;12.70;99.90
10070;DHT22;5074;53.720;10.014;2022-09-20T10:38:04;12.90;99.90
10070;DHT22;5074;53.720;10.014;2022-09-20T10:40:42;13.10;99.90
10070;DHT22;5074;53.720;10.014;2022-09-20T10:43:43;13.30;99.90
10070;DHT22;5074;53.720;10.014;2022-09-20T10:46:28;13.30;99.90
10070;DHT22;5074;53.720;10.014;2022-09-20T10:49:08;13.40;99.90
10070;DHT22;5074;53.720;10.014;2022-09-20T10:51:46;13.30;99.90
10070;DHT22;5074;53.720;10.014;2022-09-20T10:54:29;13.30;99.90
10070;DHT22;5074;53.720;10.014;2022-09-20T10:57:14;13.40;99.90
10070;DHT22;5074;53.720;10.014;2022-09-20T10:59:54;13.30;99.90
10070;DHT22;5074;53.720;10.014;2022-09-20T11:02:50;13.30;99.90
10070;DHT22;5074;53.720;10.014;2022-09-20T11:05:32;13.20;99.90
10070;DHT22;5074;53.720;10.014;2022-09-20T11:08:09;13.10;99.90
10070;DHT22;5074;53.720;10.014;2022-09-20T11:10:41;13.20;99.90
10070;DHT22;5074;53.720;10.014;2022-09-20T11:13:15;13.20;99.90
10070;DHT22;5074;53.720;10.014;2022-09-20T11:15:52;13.20;99.90
10070;DHT22;5074;53.720;10.014;2022-09-20T11:18:28;13.20;99.90
10070;DHT22;5074;53.720;10.014;2022-09-20T11:21:02;13.30;99.90
10070;DHT22;5074;53.720;10.014;2022-09-20T11:23:38;13.40;99.90
10070;DHT22;5074;53.720;10.014;2022-09-20T11:26:12;13.40;99.90
10070;DHT22;5074;53.720;10.014;2022-09-20T11:28:45;13.60;99.90
10070;DHT22;5074;53.720;10.014;2022-09-20T11:31:20;13.70;99.90
10070;DHT22;5074;53.720;10.014;2022-09-20T11:33:57;13.50;99.90
10070;DHT22;5074;53.720;10.014;2022-09-20T11:36:30;13.40;99.90
10070;DHT22;5074;53.720;10.014;2022-09-20T11:39:08;13.40;99.90
10070;DHT22;5074;53.720;10.014;2022-09-20T11:41:41;13.40;99.90
10070;DHT22;5074;53.720;10.014;2022-09-20T11:44:10;13.40;99.90
10070;DHT22;5074;53.720;10.014;2022-09-20T11:46:45;13.50;99.90
10070;DHT22;5074;53.720;10.014;2022-09-20T11:49:18;13.60;99.90
10070;DHT22;5074;53.720;10.014;2022-09-20T11:51:58;13.80;99.90
10070;DHT22;5074;53.720;10.014;2022-09-20T11:54:45;14.00;99.90
10070;DHT22;5074;53.720;10.014;2022-09-20T11:57:21;14.30;99.90
10070;DHT22;5074;53.720;10.014;2022-09-20T11:59:51;14.40;99.90
10070;DHT22;5074;53.720;10.014;2022-09-20T12:02:26;14.30;99.90
10070;DHT22;5074;53.720;10.014;2022-09-20T12:05:02;14.30;99.90
10070;DHT22;5074;53.720;10.014;2022-09-20T12:07:33;14.10;99.90
10070;DHT22;5074;53.720;10.014;2022-09-20T12:10:04;14.20;99.90
10070;DHT22;5074;53.720;10.014;2022-09-20T12:12:36;14.30;99.90
10070;DHT22;5074;53.720;10.014;2022-09-20T12:15:21;14.40;99.90
10070;DHT22;5074;53.720;10.014;2022-09-20T12:18:03;14.40;99.90
10070;DHT22;5074;53.720;10.014;2022-09-20T12:20:58;14.50;99.90
10070;DHT22;5074;53.720;10.014;2022-09-20T12:26:51;14.80;99.90
10070;DHT22;5074;53.720;10.014;2022-09-20T12:38:55;16.10;99.90
10070;DHT22;5074;53.720;10.014;2022-09-20T12:41:25;17.60;99.90
10070;DHT22;5074;53.720;10.014;2022-09-20T12:43:58;18.50;99.90
10070;DHT22;5074;53.720;10.014;2022-09-20T12:46:34;19.10;99.90
10070;DHT22;5074;53.720;10.014;2022-09-20T12:49:26;19.80;99.90
10070;DHT22;5074;53.720;10.014;2022-09-20T12:55:35;21.00;97.40
10070;DHT22;5074;53.720;10.014;2022-09-20T12:58:18;21.70;96.10
10070;DHT22;5074;53.720;10.014;2022-09-20T13:00:50;22.20;95.40
10070;DHT22;5074;53.720;10.014;2022-09-20T13:07:25;23.60;92.10
10070;DHT22;5074;53.720;10.014;2022-09-20T13:10:01;25.20;90.90
10070;DHT22;5074;53.720;10.014;2022-09-20T13:12:42;24.50;90.90
10070;DHT22;5074;53.720;10.014;2022-09-20T13:15:18;24.40;91.00
10070;DHT22;5074;53.720;10.014;2022-09-20T13:17:48;23.90;90.50
10070;DHT22;5074;53.720;10.014;2022-09-20T13:20:21;23.90;91.20
10070;DHT22;5074;53.720;10.014;2022-09-20T13:22:51;22.90;92.00
10070;DHT22;5074;53.720;10.014;2022-09-20T13:25:25;22.30;92.40
10070;DHT22;5074;53.720;10.014;2022-09-20T13:27:59;22.00;92.80
10070;DHT22;5074;53.720;10.014;2022-09-20T13:30:33;22.50;92.60
10070;DHT22;5074;53.720;10.014;2022-09-20T13:33:13;22.60;92.20
10070;DHT22;5074;53.720;10.014;2022-09-20T13:35:43;23.60;91.80
10070;DHT22;5074;53.720;10.014;2022-09-20T13:38:13;23.00;91.00
10070;DHT22;5074;53.720;10.014;2022-09-20T13:40:47;23.20;91.40
10070;DHT22;5074;53.720;10.014;2022-09-20T13:43:20;23.10;91.20
10070;DHT22;5074;53.720;10.014;2022-09-20T13:45:54;21.70;91.20
10070;DHT22;5074;53.720;10.014;2022-09-20T13:48:24;20.30;92.50
10070;DHT22;5074;53.720;10.014;2022-09-20T13:50:54;19.10;92.90
10070;DHT22;5074;53.720;10.014;2022-09-20T13:53:23;18.50;94.60
10070;DHT22;5074;53.720;10.014;2022-09-20T13:56:08;18.50;94.70
10070;DHT22;5074;53.720;10.014;2022-09-20T13:58:42;19.80;93.20
10070;DHT22;5074;53.720;10.014;2022-09-20T14:01:18;20.00;93.30
10070;DHT22;5074;53.720;10.014;2022-09-20T14:04:02;20.00;93.40
10070;DHT22;5074;53.720;10.014;2022-09-20T14:06:32;20.80;91.40
10070;DHT22;5074;53.720;10.014;2022-09-20T14:09:02;22.50;90.90
10070;DHT22;5074;53.720;10.014;2022-09-20T14:11:37;23.90;89.80
10070;DHT22;5074;53.720;10.014;2022-09-20T14:14:07;24.20;88.10
10070;DHT22;5074;53.720;10.014;2022-09-20T14:16:38;24.30;88.20
10070;DHT22;5074;53.720;10.014;2022-09-20T14:19:10;24.20;87.80
10070;DHT22;5074;53.720;10.014;2022-09-20T14:21:41;24.00;88.80
10070;DHT22;5074;53.720;10.014;2022-09-20T14:24:23;24.10;87.50
10070;DHT22;5074;53.720;10.014;2022-09-20T14:26:59;22.80;89.60
10070;DHT22;5074;53.720;10.014;2022-09-20T14:29:38;21.50;91.50
10070;DHT22;5074;53.720;10.014;2022-09-20T14:32:10;22.00;90.80
10070;DHT22;5074;53.720;10.014;2022-09-20T14:34:51;23.30;90.10
10070;DHT22;5074;53.720;10.014;2022-09-20T14:37:28;23.80;88.40
10070;DHT22;5074;53.720;10.014;2022-09-20T14:39:58;22.90;89.00
10070;DHT22;5074;53.720;10.014;2022-09-20T14:42:29;23.10;87.80
10070;DHT22;5074;53.720;10.014;2022-09-20T14:45:02;23.40;87.20
10070;DHT22;5074;53.720;10.014;2022-09-20T14:47:35;23.40;87.40
10070;DHT22;5074;53.720;10.014;2022-09-20T14:50:21;23.80;87.00
10070;DHT22;5074;53.720;10.014;2022-09-20T14:56:09;23.90;84.70
10070;DHT22;5074;53.720;10.014;2022-09-20T15:01:52;24.70;83.20
10070;DHT22;5074;53.720;10.014;2022-09-20T15:04:23;24.70;83.10
10070;DHT22;5074;53.720;10.014;2022-09-20T15:06:54;25.20;84.10
10070;DHT22;5074;53.720;10.014;2022-09-20T15:09:23;24.80;82.00
10070;DHT22;5074;53.720;10.014;2022-09-20T15:11:58;24.20;83.10
10070;DHT22;5074;53.720;10.014;2022-09-20T15:14:27;24.50;84.20
10070;DHT22;5074;53.720;10.014;2022-09-20T15:17:03;24.50;81.60
10070;DHT22;5074;53.720;10.014;2022-09-20T15:19:31;23.80;82.50
10070;DHT22;5074;53.720;10.014;2022-09-20T15:21:59;22.50;84.20
10070;DHT22;5074;53.720;10.014;2022-09-20T15:24:27;21.20;86.20
10070;DHT22;5074;53.720;10.014;2022-09-20T15:26:55;20.20;88.60
10070;DHT22;5074;53.720;10.014;2022-09-20T15:29:23;19.30;90.30
10070;DHT22;5074;53.720;10.014;2022-09-20T15:31:52;18.60;91.10
10070;DHT22;5074;53.720;10.014;2022-09-20T15:34:22;18.10;91.20
10070;DHT22;5074;53.720;10.014;2022-09-20T15:36:50;17.90;91.60
10070;DHT22;5074;53.720;10.014;2022-09-20T15:39:19;17.80;92.10
10070;DHT22;5074;53.720;10.014;2022-09-20T15:41:49;17.80;92.60
10070;DHT22;5074;53.720;10.014;2022-09-20T15:44:18;18.00;92.70
10070;DHT22;5074;53.720;10.014;2022-09-20T15:46:46;18.00;93.00
10070;DHT22;5074;53.720;10.014;2022-09-20T15:49:16;18.10;92.70
10070;DHT22;5074;53.720;10.014;2022-09-20T15:51:47;18.10;93.30
10070;DHT22;5074;53.720;10.014;2022-09-20T15:54:15;18.20;93.10
10070;DHT22;5074;53.720;10.014;2022-09-20T15:56:43;18.20;93.00
10070;DHT22;5074;53.720;10.014;2022-09-20T15:59:11;18.20;92.70
10070;DHT22;5074;53.720;10.014;2022-09-20T16:01:42;18.00;92.80
10070;DHT22;5074;53.720;10.014;2022-09-20T16:04:14;17.80;93.10
10070;DHT22;5074;53.720;10.014;2022-09-20T16:06:44;17.70;94.30
10070;DHT22;5074;53.720;10.014;2022-09-20T16:09:16;17.60;93.60
10070;DHT22;5074;53.720;10.014;2022-09-20T16:11:44;17.40;94.00
10070;DHT22;5074;53.720;10.014;2022-09-20T16:14:13;17.30;93.70
10070;DHT22;5074;53.720;10.014;2022-09-20T16:16:41;17.30;94.00
10070;DHT22;5074;53.720;10.014;2022-09-20T16:19:09;17.20;94.90
10070;DHT22;5074;53.720;10.014;2022-09-20T16:21:46;17.10;95.60
10070;DHT22;5074;53.720;10.014;2022-09-20T16:24:24;16.90;94.60
10070;DHT22;5074;53.720;10.014;2022-09-20T16:26:53;16.80;95.20
10070;DHT22;5074;53.720;10.014;2022-09-20T16:29:21;16.70;94.80
10070;DHT22;5074;53.720;10.014;2022-09-20T16:31:51;16.40;95.70
10070;DHT22;5074;53.720;10.014;2022-09-20T16:34:21;16.20;96.80
10070;DHT22;5074;53.720;10.014;2022-09-20T16:36:55;16.00;97.20
10070;DHT22;5074;53.720;10.014;2022-09-20T16:39:26;16.00;98.50
10070;DHT22;5074;53.720;10.014;2022-09-20T16:41:56;15.90;97.30
10070;DHT22;5074;53.720;10.014;2022-09-20T16:44:29;15.70;97.70
10070;DHT22;5074;53.720;10.014;2022-09-20T16:46:57;15.70;98.10
10070;DHT22;5074;53.720;10.014;2022-09-20T16:49:25;15.50;98.90
10070;DHT22;5074;53.720;10.014;2022-09-20T16:51:55;15.40;99.40
10070;DHT22;5074;53.720;10.014;2022-09-20T16:54:23;15.30;99.90
10070;DHT22;5074;53.720;10.014;2022-09-20T16:56:58;15.20;99.90
10070;DHT22;5074;53.720;10.014;2022-09-20T16:59:27;15.00;99.90
10070;DHT22;5074;53.720;10.014;2022-09-20T17:01:55;14.90;99.90
10070;DHT22;5074;53.720;10.014;2022-09-20T17:04:23;14.80;99.90
10070;DHT22;5074;53.720;10.014;2022-09-20T17:06:51;14.80;99.90
10070;DHT22;5074;53.720;10.014;2022-09-20T17:09:19;14.70;99.90
10070;DHT22;5074;53.720;10.014;2022-09-20T17:11:48;14.50;99.90
10070;DHT22;5074;53.720;10.014;2022-09-20T17:14:18;14.40;99.90
10070;DHT22;5074;53.720;10.014;2022-09-20T17:16:47;14.30;99.90
10070;DHT22;5074;53.720;10.014;2022-09-20T17:19:16;14.30;99.90
10070;DHT22;5074;53.720;10.014;2022-09-20T17:21:46;14.20;99.90
10070;DHT22;5074;53.720;10.014;2022-09-20T17:24:17;14.10;99.90
10070;DHT22;5074;53.720;10.014;2022-09-20T17:26:46;13.90;99.90
10070;DHT22;5074;53.720;10.014;2022-09-20T17:29:16;13.70;99.90
10070;DHT22;5074;53.720;10.014;2022-09-20T17:31:47;13.50;99.90
10070;DHT22;5074;53.720;10.014;2022-09-20T17:34:21;13.30;99.90